createdAt,value
2023-04-11T00:01:49.807Z,2.90
2023-04-11T00:04:17.819Z,3.03
2023-04-11T00:06:44.914Z,2.80
2023-04-11T00:09:12.399Z,2.90
2023-04-11T00:11:39.327Z,2.83
2023-04-11T00:14:08.870Z,2.53
2023-04-11T00:16:36.387Z,2.70
2023-04-11T00:19:03.464Z,2.77
2023-04-11T00:21:30.403Z,3.07
2023-04-11T00:23:57.304Z,2.63
2023-04-11T00:26:24.204Z,3.07
2023-04-11T00:28:51.139Z,3.20
2023-04-11T00:31:18.115Z,2.80
2023-04-11T00:33:45.144Z,2.50
2023-04-11T00:36:12.243Z,2.87
2023-04-11T00:38:39.306Z,3.07
2023-04-11T00:41:06.665Z,3.10
2023-04-11T00:43:33.537Z,3.13
2023-04-11T00:46:01.143Z,3.17
2023-04-11T00:48:28.692Z,3.30
2023-04-11T00:50:56.140Z,2.97
2023-04-11T00:53:23.532Z,3.07
2023-04-11T00:55:50.988Z,2.93
2023-04-11T00:58:18.521Z,3.57
2023-04-11T01:00:49.570Z,3.50
2023-04-11T01:03:17.989Z,2.87
2023-04-11T01:05:46.058Z,2.90
2023-04-11T01:08:14.065Z,3.10
2023-04-11T01:10:42.301Z,3.00
2023-04-11T01:13:09.917Z,2.73
2023-04-11T01:15:36.873Z,2.77
2023-04-11T01:18:05.756Z,2.67
2023-04-11T01:20:33.496Z,2.60
2023-04-11T01:23:03.066Z,3.00
2023-04-11T01:25:30.420Z,2.60
2023-04-11T01:27:57.404Z,2.90
2023-04-11T01:30:24.416Z,2.60
2023-04-11T01:32:51.371Z,2.70
2023-04-11T01:35:19.259Z,2.60
2023-04-11T01:37:46.435Z,2.93
2023-04-11T01:40:18.748Z,2.90
2023-04-11T01:42:46.932Z,2.80
2023-04-11T01:45:14.414Z,2.40
2023-04-11T01:47:41.404Z,2.73
2023-04-11T01:50:08.829Z,2.90
2023-04-11T01:52:35.962Z,3.10
2023-04-11T01:55:03.014Z,3.13
2023-04-11T01:57:30.039Z,3.03
2023-04-11T01:59:56.897Z,2.90
2023-04-11T02:02:23.948Z,3.50
2023-04-11T02:04:51.041Z,3.10
2023-04-11T02:07:18.028Z,2.70
2023-04-11T02:09:45.002Z,2.53
2023-04-11T02:12:11.970Z,2.50
2023-04-11T02:14:46.155Z,3.60
2023-04-11T02:17:14.236Z,2.87
2023-04-11T02:19:41.601Z,3.17
2023-04-11T02:22:11.307Z,3.10
2023-04-11T02:24:38.685Z,3.57
2023-04-11T02:27:05.728Z,3.40
2023-04-11T02:29:33.366Z,3.47
2023-04-11T02:32:00.740Z,3.30
2023-04-11T02:34:27.764Z,3.13
2023-04-11T02:36:54.806Z,3.53
2023-04-11T02:39:24.059Z,3.70
2023-04-11T02:41:51.282Z,3.43
2023-04-11T02:44:19.270Z,3.40
2023-04-11T02:46:46.267Z,3.00
2023-04-11T02:49:13.264Z,3.30
2023-04-11T02:51:40.208Z,2.93
2023-04-11T02:54:07.651Z,2.70
2023-04-11T02:56:38.901Z,3.07
2023-04-11T02:59:07.042Z,3.30
2023-04-11T03:01:34.328Z,2.97
2023-04-11T03:04:01.542Z,3.13
2023-04-11T03:06:29.327Z,3.07
2023-04-11T03:08:56.996Z,3.17
2023-04-11T03:11:24.114Z,3.00
2023-04-11T03:13:51.154Z,3.30
2023-04-11T03:16:18.088Z,3.13
2023-04-11T03:18:45.067Z,2.70
2023-04-11T03:21:12.422Z,3.07
2023-04-11T03:23:39.543Z,2.87
2023-04-11T03:26:06.985Z,2.70
2023-04-11T03:28:34.066Z,2.90
2023-04-11T03:31:01.167Z,3.00
2023-04-11T03:33:28.152Z,3.50
2023-04-11T03:35:55.152Z,3.10
2023-04-11T03:38:22.303Z,2.93
2023-04-11T03:40:49.240Z,3.27
2023-04-11T03:43:17.252Z,3.40
2023-04-11T03:45:44.311Z,3.00
2023-04-11T03:48:11.879Z,3.43
2023-04-11T03:50:39.585Z,3.30
2023-04-11T03:53:07.278Z,3.57
2023-04-11T03:55:34.193Z,3.60
2023-04-11T03:58:01.152Z,3.60
2023-04-11T04:00:28.443Z,3.70
2023-04-11T04:02:55.626Z,3.10
2023-04-11T04:05:22.893Z,2.90
2023-04-11T04:07:49.806Z,3.30
2023-04-11T04:10:16.713Z,3.10
2023-04-11T04:12:43.972Z,3.90
2023-04-11T04:15:11.603Z,3.90
2023-04-11T04:17:38.545Z,3.63
2023-04-11T04:20:07.145Z,3.67
2023-04-11T04:22:34.322Z,4.07
2023-04-11T04:25:02.085Z,3.80
2023-04-11T04:27:29.070Z,4.47
2023-04-11T04:30:03.774Z,3.37
2023-04-11T04:32:31.639Z,3.60
2023-04-11T04:34:58.981Z,4.23
2023-04-11T04:37:27.344Z,3.67
2023-04-11T04:39:56.214Z,3.83
2023-04-11T04:42:28.992Z,3.40
2023-04-11T04:44:57.066Z,3.40
2023-04-11T04:47:29.301Z,3.60
2023-04-11T04:49:56.964Z,3.87
2023-04-11T04:52:25.798Z,3.30
2023-04-11T04:54:53.833Z,3.63
2023-04-11T04:57:21.201Z,3.63
2023-04-11T04:59:48.122Z,3.70
2023-04-11T05:02:17.157Z,4.60
2023-04-11T05:04:48.265Z,5.20
2023-04-11T05:07:16.061Z,4.47
2023-04-11T05:09:44.351Z,4.47
2023-04-11T05:12:11.314Z,3.83
2023-04-11T05:14:38.363Z,3.83
2023-04-11T05:17:05.567Z,3.80
2023-04-11T05:19:33.178Z,3.17
2023-04-11T05:22:00.121Z,3.20
2023-04-11T05:24:27.100Z,3.53
2023-04-11T05:26:54.047Z,3.63
2023-04-11T05:29:21.427Z,3.30
2023-04-11T05:31:48.347Z,3.60
2023-04-11T05:34:15.415Z,3.80
2023-04-11T05:36:42.547Z,3.70
2023-04-11T05:39:09.504Z,3.80
2023-04-11T05:41:36.402Z,3.80
2023-04-11T05:44:03.338Z,3.30
2023-04-11T05:46:30.398Z,3.43
2023-04-11T05:49:00.991Z,3.03
2023-04-11T05:51:27.911Z,3.57
2023-04-11T05:53:55.052Z,3.50
2023-04-11T05:56:22.179Z,3.23
2023-04-11T05:58:49.124Z,3.13
2023-04-11T06:01:18.583Z,3.40
2023-04-11T06:03:46.553Z,2.67
2023-04-11T06:06:13.969Z,3.10
2023-04-11T06:08:40.998Z,3.17
2023-04-11T06:11:08.165Z,2.90
2023-04-11T06:13:35.137Z,2.70
2023-04-11T06:16:02.649Z,2.80
2023-04-11T06:18:29.651Z,2.90
2023-04-11T06:20:56.586Z,3.20
2023-04-11T06:23:23.496Z,2.67
2023-04-11T06:25:50.473Z,3.20
2023-04-11T06:28:17.390Z,2.93
2023-04-11T06:30:44.312Z,2.73
2023-04-11T06:33:11.587Z,2.20
2023-04-11T06:35:38.710Z,2.63
2023-04-11T06:38:05.635Z,2.10
2023-04-11T06:40:32.598Z,2.97
2023-04-11T06:43:01.012Z,2.77
2023-04-11T06:45:27.945Z,2.50
2023-04-11T06:47:54.944Z,2.30
2023-04-11T06:50:22.200Z,2.53
2023-04-11T06:52:49.272Z,3.67
2023-04-11T06:55:16.781Z,2.10
2023-04-11T06:57:44.095Z,2.50
2023-04-11T07:00:13.093Z,2.37
2023-04-11T07:02:40.244Z,2.47
2023-04-11T07:05:09.415Z,2.30
2023-04-11T07:07:36.644Z,2.33
2023-04-11T07:10:04.835Z,2.40
2023-04-11T07:12:31.820Z,2.37
2023-04-11T07:14:58.806Z,2.30
2023-04-11T07:17:26.090Z,1.93
2023-04-11T07:19:53.047Z,1.87
2023-04-11T07:22:20.117Z,1.73
2023-04-11T07:24:50.988Z,2.00
2023-04-11T07:27:18.869Z,2.43
2023-04-11T07:29:46.350Z,1.90
2023-04-11T07:32:13.263Z,2.03
2023-04-11T07:34:40.642Z,2.10
2023-04-11T07:37:07.650Z,2.13
2023-04-11T07:39:34.833Z,1.90
2023-04-11T07:42:02.561Z,1.77
2023-04-11T07:44:29.513Z,2.00
2023-04-11T07:46:56.472Z,2.10
2023-04-11T07:49:23.412Z,2.40
2023-04-11T07:51:50.633Z,1.80
2023-04-11T07:54:17.743Z,2.20
2023-04-11T07:56:44.699Z,1.80
2023-04-11T07:59:15.818Z,2.00
2023-04-11T08:01:42.869Z,1.97
2023-04-11T08:04:10.072Z,2.23
2023-04-11T08:06:37.064Z,2.10
2023-04-11T08:09:04.062Z,1.73
2023-04-11T08:11:31.206Z,1.67
2023-04-11T08:13:58.280Z,1.80
2023-04-11T08:16:25.500Z,2.07
2023-04-11T08:18:52.425Z,2.00
2023-04-11T08:21:19.336Z,1.90
2023-04-11T08:23:47.380Z,2.50
2023-04-11T08:26:14.486Z,1.70
2023-04-11T08:28:42.834Z,2.00
2023-04-11T08:31:13.051Z,1.97
2023-04-11T08:33:40.524Z,1.97
2023-04-11T08:36:09.983Z,2.00
2023-04-11T08:38:37.862Z,1.57
2023-04-11T08:41:05.110Z,1.53
2023-04-11T08:43:35.753Z,1.87
2023-04-11T08:46:04.164Z,1.70
2023-04-11T08:48:32.314Z,1.70
2023-04-11T08:50:59.536Z,1.87
2023-04-11T08:53:28.039Z,1.70
2023-04-11T08:55:55.119Z,1.60
2023-04-11T08:58:23.366Z,1.83
2023-04-11T09:00:50.524Z,1.57
2023-04-11T09:03:17.798Z,1.77
2023-04-11T09:05:46.812Z,1.43
2023-04-11T09:08:16.338Z,1.67
2023-04-11T09:10:47.630Z,1.70
2023-04-11T09:13:22.031Z,1.73
2023-04-11T09:16:03.457Z,1.60
2023-04-11T09:18:35.462Z,1.60
2023-04-11T09:21:05.281Z,2.07
2023-04-11T09:23:32.392Z,1.67
2023-04-11T09:25:59.327Z,1.40
2023-04-11T09:28:26.265Z,1.50
2023-04-11T09:30:55.601Z,1.57
2023-04-11T09:33:24.561Z,1.50
2023-04-11T09:35:56.118Z,1.33
2023-04-11T09:38:34.010Z,1.73
2023-04-11T09:41:02.497Z,1.53
2023-04-11T09:43:50.103Z,1.27
2023-04-11T09:46:20.659Z,1.90
2023-04-11T09:48:51.876Z,1.70
2023-04-11T09:53:49.976Z,1.30
2023-04-11T09:56:16.850Z,1.50
2023-04-11T09:58:43.804Z,1.47
2023-04-11T10:01:10.900Z,1.60
2023-04-11T10:03:39.963Z,1.60
2023-04-11T10:06:15.353Z,1.47
2023-04-11T10:08:42.782Z,1.50
2023-04-11T10:11:11.519Z,1.50
2023-04-11T10:13:39.441Z,1.70
2023-04-11T10:16:21.253Z,1.60
2023-04-11T10:18:54.112Z,1.30
2023-04-11T10:21:30.122Z,1.40
2023-04-11T10:24:17.579Z,1.43
2023-04-11T10:26:59.053Z,1.60
2023-04-11T10:29:31.444Z,1.47
2023-04-11T10:32:24.664Z,1.23
2023-04-11T10:34:54.560Z,1.50
2023-04-11T10:37:30.695Z,1.33
2023-04-11T10:39:58.257Z,1.27
2023-04-11T10:42:34.840Z,1.27
2023-04-11T10:45:14.375Z,1.43
2023-04-11T10:47:41.778Z,1.67
2023-04-11T10:50:26.897Z,1.80
2023-04-11T10:52:57.113Z,1.83
2023-04-11T10:55:27.153Z,1.90
2023-04-11T10:58:11.519Z,1.93
2023-04-11T11:01:07.425Z,1.70
2023-04-11T11:03:35.943Z,1.80
2023-04-11T11:06:08.057Z,1.97
2023-04-11T11:08:35.679Z,1.83
2023-04-11T11:11:07.676Z,1.80
2023-04-11T11:13:42.919Z,1.83
2023-04-11T11:16:13.768Z,1.97
2023-04-11T11:18:41.919Z,2.07
2023-04-11T11:21:14.070Z,2.17
2023-04-11T11:23:58.866Z,2.50
2023-04-11T11:26:44.643Z,1.73
2023-04-11T11:29:12.230Z,1.53
2023-04-11T11:31:43.275Z,2.00
2023-04-11T11:36:42.503Z,2.37
2023-04-11T11:39:11.045Z,2.20
2023-04-11T11:41:39.121Z,2.20
2023-04-11T11:44:06.551Z,2.13
2023-04-11T11:46:35.365Z,2.13
2023-04-11T11:49:08.347Z,2.10
2023-04-11T11:51:47.980Z,2.53
2023-04-11T11:54:15.037Z,2.20
2023-04-11T11:56:50.720Z,2.27
2023-04-11T11:59:27.906Z,2.20
2023-04-11T12:01:54.992Z,2.20
2023-04-11T12:04:22.891Z,2.00
2023-04-11T12:06:49.937Z,2.70
2023-04-11T12:09:17.037Z,2.47
2023-04-11T12:11:45.818Z,2.60
2023-04-11T12:14:23.342Z,3.10
2023-04-11T12:16:54.275Z,1.93
2023-04-11T12:19:21.211Z,2.57
2023-04-11T12:21:48.104Z,2.20
2023-04-11T12:24:14.976Z,2.20
2023-04-11T12:26:57.376Z,2.40
2023-04-11T12:29:28.838Z,2.00
2023-04-11T12:31:55.892Z,2.13
2023-04-11T12:34:22.788Z,2.10
2023-04-11T12:36:49.702Z,2.03
2023-04-11T12:39:16.699Z,2.20
2023-04-11T12:41:43.675Z,2.37
2023-04-11T12:44:10.658Z,2.33
2023-04-11T12:46:37.651Z,2.60
2023-04-11T12:49:04.823Z,2.73
2023-04-11T12:51:31.970Z,2.80
2023-04-11T12:53:58.863Z,2.70
2023-04-11T12:56:26.953Z,2.40
2023-04-11T12:58:53.955Z,2.90
2023-04-11T13:01:21.493Z,2.77
2023-04-11T13:03:48.551Z,2.40
2023-04-11T13:06:16.914Z,2.77
2023-04-11T13:08:43.881Z,3.03
2023-04-11T13:11:10.947Z,3.13
2023-04-11T13:13:37.880Z,2.97
2023-04-11T13:16:05.199Z,4.33
2023-04-11T13:18:32.155Z,3.77
2023-04-11T13:20:59.092Z,2.83
2023-04-11T13:23:25.998Z,2.57
2023-04-11T13:25:53.011Z,3.27
2023-04-11T13:28:21.804Z,3.30
2023-04-11T13:30:48.724Z,3.80
2023-04-11T13:33:15.670Z,3.77
2023-04-11T13:35:42.629Z,3.73
2023-04-11T13:38:11.236Z,3.40
2023-04-11T13:40:42.750Z,4.07
2023-04-11T13:43:10.854Z,4.17
2023-04-11T13:45:37.874Z,4.70
2023-04-11T13:48:05.069Z,5.37
2023-04-11T13:50:34.318Z,5.57
2023-04-11T13:53:01.348Z,5.60
2023-04-11T13:55:28.287Z,5.90
2023-04-11T13:57:55.766Z,5.20
2023-04-11T14:00:22.824Z,5.93
2023-04-11T14:02:51.341Z,5.13
2023-04-11T14:05:19.671Z,5.20
2023-04-11T14:07:46.535Z,5.23
2023-04-11T14:10:13.495Z,5.20
2023-04-11T14:12:40.791Z,4.87
2023-04-11T14:15:08.358Z,4.80
2023-04-11T14:17:35.453Z,5.20
2023-04-11T14:20:05.205Z,5.57
2023-04-11T14:22:32.427Z,5.23
2023-04-11T14:24:59.315Z,5.60
2023-04-11T14:27:26.209Z,5.57
2023-04-11T14:29:53.117Z,5.93
2023-04-11T14:32:20.328Z,5.60
2023-04-11T14:34:47.401Z,5.73
2023-04-11T14:37:14.378Z,5.93
2023-04-11T14:39:41.410Z,5.27
2023-04-11T14:42:09.828Z,5.60
2023-04-11T14:44:39.346Z,5.87
2023-04-11T14:47:06.487Z,4.90
2023-04-11T14:49:33.491Z,5.70
2023-04-11T14:52:01.363Z,5.00
2023-04-11T14:54:28.649Z,4.97
2023-04-11T14:56:56.224Z,5.87
2023-04-11T14:59:23.267Z,6.03
2023-04-11T15:01:50.497Z,5.13
2023-04-11T15:04:17.661Z,5.33
2023-04-11T15:06:44.763Z,5.60
2023-04-11T15:09:11.766Z,5.27
2023-04-11T15:11:38.655Z,5.30
2023-04-11T15:14:05.595Z,4.90
2023-04-11T15:16:32.483Z,5.40
2023-04-11T15:18:59.425Z,4.70
2023-04-11T15:21:27.536Z,6.20
2023-04-11T15:23:54.796Z,6.03
2023-04-11T15:26:22.151Z,5.90
2023-04-11T15:28:49.094Z,6.10
2023-04-11T15:31:26.847Z,6.87
2023-04-11T15:33:57.165Z,7.27
2023-04-11T15:36:24.269Z,6.37
2023-04-11T15:38:51.303Z,7.50
2023-04-11T15:41:18.271Z,7.53
2023-04-11T15:43:45.203Z,7.53
2023-04-11T15:46:12.422Z,7.20
2023-04-11T15:48:39.348Z,6.93
2023-04-11T15:51:10.869Z,7.43
2023-04-11T15:53:37.833Z,7.53
2023-04-11T15:56:06.598Z,7.33
2023-04-11T15:58:33.985Z,7.27
2023-04-11T16:01:01.775Z,7.93
2023-04-11T16:03:32.270Z,7.90
2023-04-11T16:06:02.986Z,7.97
2023-04-11T16:08:29.967Z,7.87
2023-04-11T16:10:56.904Z,7.90
2023-04-11T16:13:23.830Z,7.73
2023-04-11T16:15:50.789Z,8.07
2023-04-11T16:18:17.773Z,8.00
2023-04-11T16:20:44.693Z,7.40
2023-04-11T16:23:11.620Z,7.70
2023-04-11T16:25:38.517Z,7.17
2023-04-11T16:28:05.411Z,7.23
2023-04-11T16:30:32.415Z,7.23
2023-04-11T16:32:59.340Z,7.40
2023-04-11T16:35:26.417Z,7.60
2023-04-11T16:37:53.511Z,6.70
2023-04-11T16:40:20.868Z,6.60
2023-04-11T16:42:48.049Z,6.50
2023-04-11T16:45:15.040Z,6.80
2023-04-11T16:47:41.953Z,6.67
2023-04-11T16:50:09.387Z,9.23
2023-04-11T16:52:36.382Z,9.07
2023-04-11T16:55:03.557Z,6.87
2023-04-11T16:57:33.142Z,10.07
2023-04-11T17:00:01.092Z,7.33
2023-04-11T17:02:28.328Z,6.83
2023-04-11T17:04:55.802Z,7.23
2023-04-11T17:07:22.735Z,5.97
2023-04-11T17:09:49.847Z,6.93
2023-04-11T17:12:17.025Z,6.60
2023-04-11T17:14:45.672Z,6.00
2023-04-11T17:17:12.605Z,7.00
2023-04-11T17:19:39.559Z,6.83
2023-04-11T17:22:07.159Z,6.63
2023-04-11T17:24:34.134Z,6.10
2023-04-11T17:27:01.062Z,7.43
2023-04-11T17:29:28.441Z,8.20
2023-04-11T17:31:55.355Z,10.57
2023-04-11T17:34:22.245Z,8.47
2023-04-11T17:36:49.131Z,11.50
2023-04-11T17:39:18.772Z,10.63
2023-04-11T17:41:46.118Z,9.03
2023-04-11T17:44:13.588Z,10.10
2023-04-11T17:46:41.096Z,16.33
2023-04-11T17:49:08.290Z,11.83
2023-04-11T17:51:38.946Z,11.07
2023-04-11T17:54:09.890Z,6.17
2023-04-11T17:56:36.764Z,6.50
2023-04-11T17:59:03.699Z,6.17
2023-04-11T18:01:32.464Z,6.07
2023-04-11T18:04:01.825Z,6.20
2023-04-11T18:06:29.622Z,6.00
2023-04-11T18:08:56.756Z,6.23
2023-04-11T18:11:23.728Z,5.83
2023-04-11T18:13:50.972Z,6.07
2023-04-11T18:16:18.422Z,6.27
2023-04-11T18:18:46.973Z,5.40
2023-04-11T18:21:14.689Z,6.03
2023-04-11T18:23:41.691Z,5.27
2023-04-11T18:26:08.597Z,5.87
2023-04-11T18:28:35.540Z,5.63
2023-04-11T18:31:02.850Z,5.63
2023-04-11T18:33:29.840Z,5.43
2023-04-11T18:35:57.225Z,5.53
2023-04-11T18:38:24.216Z,5.40
2023-04-11T18:40:55.420Z,5.50
2023-04-11T18:43:24.041Z,4.60
2023-04-11T18:45:51.205Z,5.53
2023-04-11T18:48:18.319Z,6.20
2023-04-11T18:50:48.539Z,5.93
2023-04-11T18:53:15.826Z,5.77
2023-04-11T18:55:42.902Z,5.67
2023-04-11T18:58:11.203Z,5.53
2023-04-11T19:00:40.778Z,5.53
2023-04-11T19:03:15.177Z,5.93
2023-04-11T19:05:43.928Z,5.83
2023-04-11T19:08:11.185Z,6.23
2023-04-11T19:10:38.167Z,5.67
2023-04-11T19:13:05.947Z,5.90
2023-04-11T19:15:33.153Z,6.30
2023-04-11T19:18:00.692Z,6.00
2023-04-11T19:20:28.240Z,5.63
2023-04-11T19:22:55.276Z,6.17
2023-04-11T19:25:22.230Z,5.43
2023-04-11T19:27:49.759Z,6.07
2023-04-11T19:30:16.982Z,5.60
2023-04-11T19:32:46.055Z,6.30
2023-04-11T19:35:13.505Z,5.93
2023-04-11T19:37:40.946Z,5.70
2023-04-11T19:40:08.404Z,5.97
2023-04-11T19:42:39.997Z,6.20
2023-04-11T19:45:09.162Z,5.93
2023-04-11T19:47:36.347Z,6.03
2023-04-11T19:50:03.449Z,5.77
2023-04-11T19:52:30.478Z,6.00
2023-04-11T19:54:57.488Z,5.80
2023-04-11T19:57:27.148Z,5.90
2023-04-11T19:59:54.029Z,6.13
2023-04-11T20:02:21.323Z,6.20
2023-04-11T20:04:49.468Z,5.80
2023-04-11T20:07:16.612Z,6.40
2023-04-11T20:09:43.609Z,6.13
2023-04-11T20:12:10.635Z,5.83
2023-04-11T20:14:38.331Z,6.17
2023-04-11T20:17:06.159Z,5.67
2023-04-11T20:19:33.321Z,5.77
2023-04-11T20:22:01.265Z,8.20
2023-04-11T20:24:28.303Z,6.10
2023-04-11T20:26:57.040Z,5.90
2023-04-11T20:29:24.803Z,5.80
2023-04-11T20:31:51.806Z,13.33
2023-04-11T20:34:18.742Z,10.43
2023-04-11T20:36:45.668Z,6.50
2023-04-11T20:39:12.578Z,5.77
2023-04-11T20:41:40.629Z,5.37
2023-04-11T20:44:07.730Z,6.67
2023-04-11T20:46:39.618Z,5.97
2023-04-11T20:49:06.981Z,5.97
2023-04-11T20:51:34.636Z,6.17
2023-04-11T20:54:01.734Z,5.77
2023-04-11T20:56:35.091Z,6.47
2023-04-11T20:59:02.634Z,5.73
2023-04-11T21:01:33.526Z,4.97
2023-04-11T21:04:04.157Z,5.30
2023-04-11T21:06:32.135Z,4.70
2023-04-11T21:09:06.104Z,5.07
2023-04-11T21:11:33.153Z,4.73
2023-04-11T21:14:00.515Z,5.30
2023-04-11T21:16:27.645Z,5.17
2023-04-11T21:18:54.956Z,5.40
2023-04-11T21:21:21.863Z,5.17
2023-04-11T21:23:48.737Z,5.43
2023-04-11T21:26:15.746Z,5.63
2023-04-11T21:28:42.689Z,5.00
2023-04-11T21:31:09.700Z,4.63
2023-04-11T21:33:36.655Z,5.40
2023-04-11T21:36:03.805Z,5.87
2023-04-11T21:38:30.949Z,5.87
2023-04-11T21:40:58.111Z,5.37
2023-04-11T21:43:25.362Z,5.27
2023-04-11T21:45:52.372Z,5.30
2023-04-11T21:48:19.335Z,4.80
2023-04-11T21:50:46.413Z,5.63
2023-04-11T21:53:14.127Z,5.87
2023-04-11T21:55:47.364Z,5.30
2023-04-11T21:58:26.300Z,4.83
2023-04-11T22:00:55.861Z,4.90
2023-04-11T22:03:23.257Z,6.10
2023-04-11T22:05:52.469Z,5.83
2023-04-11T22:08:22.220Z,5.13
2023-04-11T22:10:50.921Z,5.53
2023-04-11T22:13:19.514Z,5.30
2023-04-11T22:15:48.805Z,5.03
2023-04-11T22:18:16.019Z,5.33
2023-04-11T22:20:44.319Z,6.00
2023-04-11T22:23:12.779Z,6.27
2023-04-11T22:25:43.611Z,5.90
2023-04-11T22:28:18.326Z,6.13
2023-04-11T22:30:48.408Z,6.47
2023-04-11T22:33:16.129Z,6.70
2023-04-11T22:35:45.080Z,6.43
2023-04-11T22:38:12.093Z,7.23
2023-04-11T22:40:40.227Z,7.07
2023-04-11T22:43:07.213Z,7.13
2023-04-11T22:45:37.120Z,7.50
2023-04-11T22:48:06.096Z,8.57
2023-04-11T22:50:37.266Z,7.53
2023-04-11T22:53:04.876Z,6.83
2023-04-11T22:55:36.104Z,6.97
2023-04-11T22:58:03.613Z,6.37
2023-04-11T23:00:31.474Z,7.13
2023-04-11T23:02:59.789Z,6.17
2023-04-11T23:05:26.976Z,7.30
2023-04-11T23:07:53.932Z,7.43
2023-04-11T23:10:20.826Z,6.90
2023-04-11T23:12:49.214Z,6.30
2023-04-11T23:15:17.374Z,5.57
2023-04-11T23:17:44.922Z,5.70
2023-04-11T23:20:13.392Z,5.50
2023-04-11T23:22:42.341Z,5.50
2023-04-11T23:25:10.986Z,7.47
2023-04-11T23:27:38.516Z,5.53
2023-04-11T23:30:06.095Z,6.27
2023-04-11T23:32:33.369Z,6.83
2023-04-11T23:35:00.411Z,6.53
2023-04-11T23:37:27.479Z,6.20
2023-04-11T23:39:54.838Z,6.93
2023-04-11T23:42:21.912Z,7.30
2023-04-11T23:44:48.850Z,8.10
2023-04-11T23:47:15.810Z,8.37
2023-04-11T23:49:42.805Z,9.50
2023-04-11T23:52:11.139Z,8.13
2023-04-11T23:54:38.395Z,8.97
2023-04-11T23:57:05.354Z,9.97
2023-04-11T23:59:32.259Z,9.57
